createdAt,value
2023-03-12T00:01:47.276Z,100348.16
2023-03-12T00:04:13.802Z,100352.97
2023-03-12T00:06:40.334Z,100348.44
2023-03-12T00:09:06.997Z,100361.44
2023-03-12T00:11:33.545Z,100369.06
2023-03-12T00:14:00.293Z,100369.91
2023-03-12T00:16:27.437Z,100372.88
2023-03-12T00:18:54.945Z,100370.44
2023-03-12T00:21:22.523Z,100375.25
2023-03-12T00:23:49.593Z,100375.50
2023-03-12T00:26:17.263Z,100377.16
2023-03-12T00:28:44.151Z,100376.81
2023-03-12T00:31:32.723Z,100364.66
2023-03-12T00:34:00.947Z,100370.00
2023-03-12T00:36:29.963Z,100374.53
2023-03-12T00:38:58.120Z,100382.81
2023-03-12T00:41:25.558Z,100383.91
2023-03-12T00:43:52.568Z,100385.88
2023-03-12T00:46:19.864Z,100384.31
2023-03-12T00:48:46.611Z,100388.81
2023-03-12T00:51:13.128Z,100392.50
2023-03-12T00:53:39.821Z,100391.06
2023-03-12T00:56:06.907Z,100390.19
2023-03-12T00:58:33.451Z,100394.59
2023-03-12T01:01:00.121Z,100397.50
2023-03-12T01:03:35.815Z,100397.91
2023-03-12T01:06:02.364Z,100390.88
2023-03-12T01:08:28.927Z,100397.19
2023-03-12T01:10:55.572Z,100397.19
2023-03-12T01:13:22.422Z,100391.94
2023-03-12T01:15:48.999Z,100404.38
2023-03-12T01:18:15.641Z,100404.38
2023-03-12T01:20:42.315Z,100418.63
2023-03-12T01:23:09.514Z,100421.41
2023-03-12T01:25:36.805Z,100418.28
2023-03-12T01:28:04.004Z,100418.81
2023-03-12T01:30:30.708Z,100415.41
2023-03-12T01:32:57.440Z,100407.50
2023-03-12T01:35:24.895Z,100413.84
2023-03-12T01:37:52.533Z,100407.50
2023-03-12T01:40:21.209Z,100410.16
2023-03-12T01:42:58.612Z,100415.91
2023-03-12T01:46:03.269Z,100412.78
2023-03-12T01:48:34.543Z,100413.63
2023-03-12T01:51:08.678Z,100409.59
2023-03-12T01:53:35.326Z,100412.84
2023-03-12T01:56:02.158Z,100418.69
2023-03-12T01:58:31.102Z,100433.75
2023-03-12T02:00:57.745Z,100414.88
2023-03-12T02:03:24.535Z,100425.47
2023-03-12T02:06:07.366Z,100420.84
2023-03-12T02:08:37.209Z,100416.22
2023-03-12T02:11:03.945Z,100422.28
2023-03-12T02:13:30.564Z,100418.09
2023-03-12T02:15:57.129Z,100427.34
2023-03-12T02:18:23.962Z,100427.78
2023-03-12T02:20:57.151Z,100423.84
2023-03-12T02:23:30.840Z,100421.81
2023-03-12T02:25:57.894Z,100420.41
2023-03-12T02:28:28.329Z,100429.16
2023-03-12T02:30:59.043Z,100412.38
2023-03-12T02:33:26.301Z,100416.28
2023-03-12T02:35:53.281Z,100419.97
2023-03-12T02:38:45.030Z,100423.75
2023-03-12T02:41:11.539Z,100423.25
2023-03-12T02:43:39.025Z,100436.94
2023-03-12T02:46:06.540Z,100444.13
2023-03-12T02:48:33.178Z,100444.97
2023-03-12T02:50:59.789Z,100446.81
2023-03-12T02:53:26.615Z,100447.78
2023-03-12T02:55:53.218Z,100454.84
2023-03-12T02:58:19.786Z,100454.56
2023-03-12T03:00:46.334Z,100456.97
2023-03-12T03:03:13.254Z,100461.28
2023-03-12T03:05:39.800Z,100466.25
2023-03-12T03:08:06.850Z,100467.56
2023-03-12T03:10:33.497Z,100477.41
2023-03-12T03:13:00.066Z,100472.56
2023-03-12T03:15:27.214Z,100470.88
2023-03-12T03:17:53.765Z,100478.09
2023-03-12T03:20:21.366Z,100485.00
2023-03-12T03:22:48.453Z,100497.28
2023-03-12T03:25:15.914Z,100506.91
2023-03-12T03:27:42.529Z,100505.81
2023-03-12T03:30:12.060Z,100497.63
2023-03-12T03:32:38.684Z,100520.78
2023-03-12T03:35:05.706Z,100507.22
2023-03-12T03:37:32.287Z,100505.41
2023-03-12T03:39:58.914Z,100507.22
2023-03-12T03:42:25.593Z,100509.06
2023-03-12T03:44:52.080Z,100514.41
2023-03-12T03:47:18.712Z,100517.09
2023-03-12T03:49:45.599Z,100521.50
2023-03-12T03:52:12.203Z,100537.31
2023-03-12T03:54:38.703Z,100530.72
2023-03-12T03:57:05.281Z,100539.22
2023-03-12T03:59:31.861Z,100527.38
2023-03-12T04:01:58.376Z,100537.50
2023-03-12T04:04:25.096Z,100538.75
2023-03-12T04:06:51.660Z,100557.78
2023-03-12T04:09:18.271Z,100561.72
2023-03-12T04:11:44.834Z,100564.63
2023-03-12T04:14:31.538Z,100584.78
2023-03-12T04:16:58.093Z,100584.19
2023-03-12T04:19:24.619Z,100570.91
2023-03-12T04:21:51.166Z,100596.13
2023-03-12T04:24:20.414Z,100590.00
2023-03-12T04:26:47.019Z,100598.06
2023-03-12T04:29:14.327Z,100582.72
2023-03-12T04:31:40.955Z,100581.63
2023-03-12T04:34:07.622Z,100609.03
2023-03-12T04:36:34.143Z,100608.91
2023-03-12T04:39:00.639Z,100602.44
2023-03-12T04:41:27.165Z,100613.88
2023-03-12T04:43:53.748Z,100613.88
2023-03-12T04:46:21.265Z,100614.84
2023-03-12T04:48:47.818Z,100619.47
2023-03-12T04:51:14.424Z,100627.66
2023-03-12T04:53:41.078Z,100641.19
2023-03-12T04:56:07.959Z,100644.47
2023-03-12T04:58:35.854Z,100657.50
2023-03-12T05:01:02.703Z,100658.75
2023-03-12T05:03:29.344Z,100659.00
2023-03-12T05:05:55.914Z,100664.38
2023-03-12T05:08:22.406Z,100661.69
2023-03-12T05:10:49.013Z,100667.88
2023-03-12T05:13:20.799Z,100675.19
2023-03-12T05:15:49.009Z,100682.75
2023-03-12T05:18:15.674Z,100686.53
2023-03-12T05:20:42.313Z,100700.28
2023-03-12T05:23:08.804Z,100697.72
2023-03-12T05:25:39.386Z,100704.91
2023-03-12T05:28:05.969Z,100709.44
2023-03-12T05:30:32.565Z,100694.31
2023-03-12T05:32:59.090Z,100701.03
2023-03-12T05:35:25.657Z,100710.53
2023-03-12T05:37:52.137Z,100703.59
2023-03-12T05:40:18.696Z,100705.41
2023-03-12T05:42:45.198Z,100714.66
2023-03-12T05:45:11.735Z,100721.13
2023-03-12T05:47:38.263Z,100721.13
2023-03-12T05:50:05.294Z,100732.69
2023-03-12T05:52:31.781Z,100737.78
2023-03-12T05:54:58.330Z,100746.66
2023-03-12T05:57:24.880Z,100744.97
2023-03-12T05:59:51.689Z,100777.38
2023-03-12T06:02:18.304Z,100778.44
2023-03-12T06:04:44.803Z,100781.09
2023-03-12T06:07:11.487Z,100793.66
2023-03-12T06:09:38.085Z,100793.66
2023-03-12T06:12:05.022Z,100790.50
2023-03-12T06:14:31.597Z,100783.94
2023-03-12T06:16:58.120Z,100790.50
2023-03-12T06:19:24.646Z,100799.78
2023-03-12T06:21:51.160Z,100808.94
2023-03-12T06:24:17.743Z,100822.69
2023-03-12T06:26:44.330Z,100818.91
2023-03-12T06:29:16.877Z,100822.09
2023-03-12T06:31:44.239Z,100831.44
2023-03-12T06:34:10.986Z,100843.44
2023-03-12T06:36:37.555Z,100848.31
2023-03-12T06:39:06.484Z,100850.00
2023-03-12T06:41:33.851Z,100853.19
2023-03-12T06:44:01.846Z,100854.16
2023-03-12T06:46:28.414Z,100854.91
2023-03-12T06:48:55.245Z,100865.16
2023-03-12T06:51:21.764Z,100874.38
2023-03-12T06:53:48.367Z,100874.03
2023-03-12T06:56:15.007Z,100862.94
2023-03-12T06:58:41.951Z,100863.19
2023-03-12T07:01:08.656Z,100871.44
2023-03-12T07:03:35.532Z,100877.06
2023-03-12T07:06:02.247Z,100878.50
2023-03-12T07:08:32.024Z,100871.94
2023-03-12T07:11:01.799Z,100881.94
2023-03-12T07:13:28.896Z,100888.47
2023-03-12T07:15:55.512Z,100890.28
2023-03-12T07:18:22.134Z,100892.34
2023-03-12T07:20:48.654Z,100900.25
2023-03-12T07:23:15.400Z,100907.41
2023-03-12T07:25:42.933Z,100913.00
2023-03-12T07:28:10.441Z,100910.75
2023-03-12T07:30:37.246Z,100914.91
2023-03-12T07:33:04.951Z,100914.19
2023-03-12T07:35:32.848Z,100925.88
2023-03-12T07:38:00.332Z,100918.72
2023-03-12T07:40:27.544Z,100925.16
2023-03-12T07:42:54.028Z,100932.41
2023-03-12T07:45:21.666Z,100929.81
2023-03-12T07:47:48.670Z,100930.00
2023-03-12T07:50:16.302Z,100919.28
2023-03-12T07:52:42.877Z,100920.19
2023-03-12T07:55:10.398Z,100931.00
2023-03-12T07:57:37.786Z,100937.41
2023-03-12T08:00:07.348Z,100941.00
2023-03-12T08:02:34.657Z,100947.13
2023-03-12T08:05:01.291Z,100949.78
2023-03-12T08:07:32.315Z,100959.72
2023-03-12T08:10:00.221Z,100948.41
2023-03-12T08:12:27.512Z,100953.09
2023-03-12T08:14:54.118Z,100967.56
2023-03-12T08:17:20.785Z,100961.50
2023-03-12T08:19:48.633Z,100968.75
2023-03-12T08:22:15.436Z,100980.53
2023-03-12T08:24:42.827Z,100985.09
2023-03-12T08:27:09.809Z,100982.38
2023-03-12T08:29:36.496Z,100977.72
2023-03-12T08:32:05.219Z,100972.88
2023-03-12T08:34:33.815Z,100977.88
2023-03-12T08:37:00.534Z,100984.13
2023-03-12T08:39:27.145Z,100982.81
2023-03-12T08:41:55.433Z,100971.88
2023-03-12T08:44:23.360Z,100983.88
2023-03-12T08:46:50.322Z,100990.81
2023-03-12T08:49:16.955Z,100996.03
2023-03-12T08:51:43.849Z,100988.91
2023-03-12T08:54:10.494Z,100995.41
2023-03-12T08:56:41.855Z,100996.81
2023-03-12T08:59:09.941Z,100998.50
2023-03-12T09:01:36.626Z,100997.06
2023-03-12T09:04:04.231Z,101003.44
2023-03-12T09:06:31.122Z,101003.53
2023-03-12T09:08:57.755Z,101009.38
2023-03-12T09:11:24.295Z,101006.34
2023-03-12T09:16:37.362Z,100998.47
2023-03-12T09:19:04.145Z,101007.00
2023-03-12T09:21:31.011Z,101021.03
2023-03-12T09:23:57.808Z,101016.31
2023-03-12T09:26:24.453Z,101027.13
2023-03-12T09:28:51.156Z,101031.56
2023-03-12T09:31:17.839Z,101029.56
2023-03-12T09:33:45.276Z,101030.88
2023-03-12T09:36:11.919Z,101026.06
2023-03-12T09:38:38.970Z,101030.44
2023-03-12T09:41:06.465Z,101030.03
2023-03-12T09:43:41.312Z,101018.59
2023-03-12T09:46:33.620Z,101027.94
2023-03-12T09:49:02.529Z,101033.06
2023-03-12T09:51:36.566Z,101035.44
2023-03-12T09:54:06.420Z,101036.13
2023-03-12T09:56:33.803Z,101031.44
2023-03-12T09:59:00.739Z,101034.53
2023-03-12T10:01:27.318Z,101024.44
2023-03-12T10:04:15.547Z,101037.63
2023-03-12T10:06:49.214Z,101041.03
2023-03-12T10:09:21.867Z,101032.59
2023-03-12T10:12:10.551Z,101028.75
2023-03-12T10:15:01.786Z,101028.56
2023-03-12T10:18:08.844Z,101024.03
2023-03-12T10:20:45.240Z,101031.97
2023-03-12T10:23:18.612Z,101019.31
2023-03-12T10:26:03.803Z,101022.72
2023-03-12T10:28:46.266Z,101026.13
2023-03-12T10:31:19.343Z,101034.06
2023-03-12T10:34:00.113Z,101024.97
2023-03-12T10:36:40.267Z,101026.66
2023-03-12T10:39:19.787Z,101031.91
2023-03-12T10:41:48.047Z,101029.91
2023-03-12T10:44:20.340Z,101029.28
2023-03-12T10:47:17.242Z,101034.09
2023-03-12T10:49:46.723Z,101042.44
2023-03-12T10:52:17.409Z,101033.31
2023-03-12T10:54:46.989Z,101033.00
2023-03-12T10:57:21.284Z,101034.88
2023-03-12T10:59:49.853Z,101034.19
2023-03-12T11:02:32.235Z,101039.41
2023-03-12T11:04:59.714Z,101041.81
2023-03-12T11:07:35.866Z,101046.91
2023-03-12T11:10:08.197Z,101050.31
2023-03-12T11:12:36.686Z,101046.47
2023-03-12T11:15:25.196Z,101049.00
2023-03-12T11:17:52.112Z,101049.69
2023-03-12T11:20:25.631Z,101054.94
2023-03-12T11:22:52.194Z,101051.41
2023-03-12T11:25:28.908Z,101041.41
2023-03-12T11:27:58.199Z,101039.56
2023-03-12T11:30:30.127Z,101043.97
2023-03-12T11:32:58.227Z,101044.81
2023-03-12T11:35:34.698Z,101038.56
2023-03-12T11:38:11.128Z,101038.84
2023-03-12T11:40:52.957Z,101040.88
2023-03-12T11:43:42.662Z,101042.72
2023-03-12T11:46:18.176Z,101040.72
2023-03-12T11:48:53.889Z,101028.72
2023-03-12T11:51:49.906Z,101025.72
2023-03-12T11:54:41.495Z,101030.50
2023-03-12T11:57:47.721Z,101032.72
2023-03-12T12:00:16.148Z,101036.66
2023-03-12T12:02:58.281Z,101040.06
2023-03-12T12:05:38.294Z,101040.91
2023-03-12T12:08:35.938Z,101036.34
2023-03-12T12:11:16.966Z,101043.47
2023-03-12T12:13:58.113Z,101052.44
2023-03-12T12:16:56.215Z,101052.59
2023-03-12T12:19:32.058Z,101041.75
2023-03-12T12:22:17.508Z,101042.78
2023-03-12T12:24:59.299Z,101033.97
2023-03-12T12:27:29.581Z,101040.69
2023-03-12T12:30:14.016Z,101038.00
2023-03-12T12:32:40.494Z,101040.16
2023-03-12T12:35:27.876Z,101041.31
2023-03-12T12:38:23.121Z,101046.06
2023-03-12T12:41:03.655Z,101044.47
2023-03-12T12:43:37.726Z,101040.94
2023-03-12T12:46:13.083Z,101039.94
2023-03-12T12:48:53.117Z,101043.66
2023-03-12T12:51:21.807Z,101044.81
2023-03-12T12:54:01.762Z,101038.84
2023-03-12T12:56:35.113Z,101033.44
2023-03-12T12:59:16.694Z,101037.72
2023-03-12T13:01:43.641Z,101047.53
2023-03-12T13:04:13.821Z,101052.78
2023-03-12T13:07:12.043Z,101051.91
2023-03-12T13:09:47.073Z,101069.31
2023-03-12T13:12:44.549Z,101057.44
2023-03-12T13:15:49.770Z,101058.06
2023-03-12T13:18:28.313Z,101052.94
2023-03-12T13:20:54.853Z,101055.81
2023-03-12T13:23:51.802Z,101059.38
2023-03-12T13:26:45.756Z,101058.34
2023-03-12T13:29:19.763Z,101052.78
2023-03-12T13:31:46.456Z,101056.34
2023-03-12T13:34:15.746Z,101054.94
2023-03-12T13:36:44.680Z,101061.84
2023-03-12T13:39:19.792Z,101056.22
2023-03-12T13:41:49.948Z,101050.22
2023-03-12T13:44:23.702Z,101065.91
2023-03-12T13:47:03.852Z,101054.16
2023-03-12T13:49:56.377Z,101063.22
2023-03-12T13:52:37.941Z,101064.66
2023-03-12T13:55:13.483Z,101069.69
2023-03-12T13:57:46.392Z,101072.41
2023-03-12T14:00:29.048Z,101076.78
2023-03-12T14:03:05.096Z,101076.78
2023-03-12T14:05:34.889Z,101079.34
2023-03-12T14:08:43.963Z,101086.31
2023-03-12T14:11:29.422Z,101086.44
2023-03-12T14:14:05.126Z,101083.03
2023-03-12T14:16:46.177Z,101082.19
2023-03-12T14:19:13.802Z,101090.31
2023-03-12T14:21:43.797Z,101085.28
2023-03-12T14:24:27.467Z,101080.75
2023-03-12T14:26:55.386Z,101075.16
2023-03-12T14:29:27.549Z,101078.41
2023-03-12T14:32:02.508Z,101072.88
2023-03-12T14:34:33.680Z,101077.97
2023-03-12T14:37:05.937Z,101075.94
2023-03-12T14:39:39.763Z,101068.53
2023-03-12T14:42:08.017Z,101070.94
2023-03-12T14:44:39.554Z,101063.22
2023-03-12T14:47:10.133Z,101073.41
2023-03-12T14:49:46.913Z,101074.84
2023-03-12T14:52:27.558Z,101073.66
2023-03-12T14:54:58.946Z,101066.03
2023-03-12T14:57:26.128Z,101065.28
2023-03-12T14:59:54.919Z,101069.03
2023-03-12T15:02:22.978Z,101063.63
2023-03-12T15:04:54.153Z,101064.59
2023-03-12T15:07:39.611Z,101063.06
2023-03-12T15:10:16.316Z,101071.66
2023-03-12T15:12:45.240Z,101066.22
2023-03-12T15:15:27.386Z,101073.34
2023-03-12T15:17:54.228Z,101067.91
2023-03-12T15:20:21.458Z,101066.59
2023-03-12T15:22:49.534Z,101069.88
2023-03-12T15:25:26.345Z,101062.34
2023-03-12T15:28:03.026Z,101061.03
2023-03-12T15:30:31.395Z,101065.41
2023-03-12T15:33:27.544Z,101071.66
2023-03-12T15:36:01.804Z,101069.13
2023-03-12T15:38:29.095Z,101068.97
2023-03-12T15:40:59.579Z,101078.78
2023-03-12T15:43:29.174Z,101068.66
2023-03-12T15:46:01.210Z,101067.81
2023-03-12T15:48:34.845Z,101071.66
2023-03-12T15:51:01.696Z,101074.84
2023-03-12T15:53:31.301Z,101077.13
2023-03-12T15:56:01.975Z,101080.47
2023-03-12T15:58:39.809Z,101087.47
2023-03-12T16:01:14.784Z,101083.69
2023-03-12T16:03:43.019Z,101087.00
2023-03-12T16:06:12.753Z,101083.22
2023-03-12T16:08:52.712Z,101087.50
2023-03-12T16:11:24.819Z,101086.09
2023-03-12T16:13:54.063Z,101092.81
2023-03-12T16:16:20.689Z,101091.59
2023-03-12T16:18:47.213Z,101089.03
2023-03-12T16:21:13.942Z,101105.53
2023-03-12T16:23:40.528Z,101106.69
2023-03-12T16:26:07.271Z,101110.69
2023-03-12T16:28:35.496Z,101112.81
2023-03-12T16:31:02.680Z,101122.22
2023-03-12T16:33:29.516Z,101119.84
2023-03-12T16:35:56.197Z,101115.44
2023-03-12T16:38:24.272Z,101115.59
2023-03-12T16:40:52.052Z,101122.16
2023-03-12T23:35:02.438Z,101499.88
2023-03-12T23:37:29.091Z,101491.00
2023-03-12T23:39:55.642Z,101491.97
2023-03-12T23:42:22.249Z,101498.28
2023-03-12T23:44:48.937Z,101504.41
2023-03-12T23:47:15.507Z,101494.66
2023-03-12T23:49:42.066Z,101501.81
2023-03-12T23:52:08.620Z,101498.19
2023-03-12T23:54:35.930Z,101517.06
2023-03-12T23:57:02.750Z,101504.63
2023-03-12T23:59:29.356Z,101508.16
